Time;durP1;ratioP1;P1;durP2;ratioP2;P2;SDS_P1;SDS_P2;PMS_P1;PMS_P2;Temp;Humidity;BMP_temperature;BMP_pressure;BME280_temperature;BME280_humidity;BME280_pressure;Samples;Min_cycle;Max_cycle;Signal;HPM_P1;HPM_P2
2022/02/11 00:00:25;;;;;;;1065.65;994.65;;;;;;;5.87;67.35;101387.66;684568;28;135993;-71
2022/02/11 00:00:53;;;;;;;1062.95;992.15;;;;;;;5.88;67.22;101388.53;688039;28;128345;-72
2022/02/11 00:01:25;;;;;;;1063.55;992.67;;;;;;;5.84;67.19;101384.41;685896;28;136409;-72
2022/02/11 00:02:05;;;;;;;1061.55;990.72;;;;;;;5.85;67.18;101389.63;686659;28;135974;-72
2022/02/11 00:04:45;;;;;;;1092.38;999.90;;;;;;;5.80;67.33;101391.88;684252;28;137491;-72
2022/02/11 00:05:34;;;;;;;1100.45;999.90;;;;;;;5.76;67.32;101382.38;686489;28;136054;-72
2022/02/11 00:06:19;;;;;;;1095.45;999.90;;;;;;;5.77;67.21;101392.13;683081;28;137615;-72
2022/02/11 00:06:54;;;;;;;1086.47;999.90;;;;;;;5.77;67.43;101395.66;682925;28;148166;-72
2022/02/11 00:07:16;;;;;;;1088.93;999.90;;;;;;;5.76;67.38;101391.25;683452;28;137706;-72
2022/02/11 00:07:37;;;;;;;1086.35;999.90;;;;;;;5.74;67.39;101387.03;688896;28;22349;-72
2022/02/11 00:07:59;;;;;;;1102.72;999.90;;;;;;;5.75;67.39;101386.88;689935;28;46402;-72
2022/02/11 00:08:21;;;;;;;1092.90;999.90;;;;;;;5.75;67.39;101388.69;691085;28;23499;-72
2022/02/11 00:08:42;;;;;;;1087.72;999.90;;;;;;;5.73;67.36;101394.19;690246;28;43717;-72
2022/02/11 00:09:03;;;;;;;1089.20;999.90;;;;;;;5.71;67.30;101385.44;689666;28;45214;-72
2022/02/11 00:09:24;;;;;;;1096.00;999.90;;;;;;;5.74;67.65;101387.84;687880;28;22395;-72
2022/02/11 00:09:45;;;;;;;1094.93;999.90;;;;;;;5.73;67.62;101388.81;688260;28;22378;-72
2022/02/11 00:10:08;;;;;;;1089.80;999.90;;;;;;;5.72;67.38;101391.63;690985;28;23449;-72
2022/02/11 00:10:29;;;;;;;1095.45;999.90;;;;;;;5.72;67.67;101394.31;689560;28;67479;-72
2022/02/11 00:10:50;;;;;;;1107.10;999.90;;;;;;;5.72;67.61;101391.63;690985;28;22395;-72
2022/02/11 00:11:13;;;;;;;1112.20;999.90;;;;;;;5.71;67.67;101388.13;690547;28;21498;-72
2022/02/11 00:11:36;;;;;;;1095.07;999.90;;;;;;;5.71;67.60;101382.75;687435;28;87782;-72
2022/02/11 00:11:58;;;;;;;1090.47;999.90;;;;;;;5.70;67.89;101385.56;689454;28;46317;-72
2022/02/11 00:12:19;;;;;;;1090.38;999.90;;;;;;;5.72;67.63;101389.81;687831;28;44449;-72
2022/02/11 00:12:42;;;;;;;1091.07;999.90;;;;;;;5.71;67.60;101385.44;687454;28;46402;-72
2022/02/11 00:13:04;;;;;;;1064.88;993.67;;;;;;;5.74;67.79;101385.19;687569;28;46378;-72
2022/02/11 00:13:27;;;;;;;1054.05;983.47;;;;;;;5.73;67.87;101390.66;686586;28;69785;-72
2022/02/11 00:13:48;;;;;;;1098.38;999.90;;;;;;;5.73;67.66;101388.81;686587;28;69420;-72
2022/02/11 00:14:09;;;;;;;1111.78;999.90;;;;;;;5.74;67.80;101384.34;688071;28;21697;-73
2022/02/11 00:14:35;;;;;;;1107.05;999.90;;;;;;;5.75;67.84;101384.22;682453;28;22376;-72
2022/02/11 00:15:15;;;;;;;1105.82;999.90;;;;;;;5.74;67.70;101390.53;681026;28;138426;-72
2022/02/11 00:15:40;;;;;;;1100.78;999.90;;;;;;;5.73;67.51;101382.63;680860;28;137291;-72
2022/02/11 00:16:03;;;;;;;1090.70;999.90;;;;;;;5.72;67.57;101387.16;682235;28;114833;-72
2022/02/11 00:16:24;;;;;;;1092.82;999.90;;;;;;;5.74;67.51;101389.69;685173;28;45230;-72
2022/02/11 00:16:45;;;;;;;1102.93;999.90;;;;;;;5.74;67.50;101393.22;687175;28;21516;-73
2022/02/11 00:17:06;;;;;;;1095.45;999.90;;;;;;;5.76;67.52;101393.09;686919;28;22406;-72
2022/02/11 00:17:27;;;;;;;1089.95;999.90;;;;;;;5.76;67.76;101390.41;689028;28;1499;-72
2022/02/11 00:17:50;;;;;;;1087.28;999.90;;;;;;;5.73;67.37;101388.81;686741;28;22217;-72
2022/02/11 00:18:14;;;;;;;1085.88;999.90;;;;;;;5.73;67.55;101390.66;685934;28;69927;-72
2022/02/11 00:18:35;;;;;;;1084.82;999.90;;;;;;;5.73;67.51;101393.34;683442;28;92225;-73
2022/02/11 00:18:59;;;;;;;1087.97;999.90;;;;;;;5.72;67.64;101391.63;685511;28;21723;-72
2022/02/11 00:19:21;;;;;;;1089.70;999.90;;;;;;;5.72;67.86;101389.81;685549;28;92690;-72
2022/02/11 00:19:42;;;;;;;1087.63;999.90;;;;;;;5.71;67.76;101390.78;687210;28;44477;-72
2022/02/11 00:20:05;;;;;;;1085.68;999.90;;;;;;;5.68;67.54;101388.38;687631;28;21513;-72
2022/02/11 00:20:29;;;;;;;1089.15;999.90;;;;;;;5.69;67.72;101386.53;687653;28;60203;-72
2022/02/11 00:20:51;;;;;;;1092.82;999.90;;;;;;;5.65;67.54;101390.47;687573;28;22279;-72
2022/02/11 00:21:13;;;;;;;1089.68;999.90;;;;;;;5.65;67.56;101396.66;687426;28;46369;-71
2022/02/11 00:21:34;;;;;;;1087.30;999.90;;;;;;;5.65;67.67;101394.00;682460;28;66468;-71
2022/02/11 00:21:55;;;;;;;1083.68;999.90;;;;;;;5.65;67.75;101391.31;684612;28;23627;-71
2022/02/11 00:22:16;;;;;;;1090.60;999.90;;;;;;;5.65;67.72;101393.16;685000;28;22394;-72
2022/02/11 00:22:37;;;;;;;1089.85;999.90;;;;;;;5.64;67.85;101386.09;682496;28;20109;-72
2022/02/11 00:22:59;;;;;;;1088.07;999.90;;;;;;;5.65;67.80;101387.78;681816;28;22327;-72
2022/02/11 00:23:20;;;;;;;1086.90;999.90;;;;;;;5.64;67.82;101386.09;681662;28;45237;-72
2022/02/11 00:23:42;;;;;;;1091.00;999.90;;;;;;;5.63;67.87;101389.72;681666;28;23844;-72
2022/02/11 00:24:04;;;;;;;1103.32;999.90;;;;;;;5.63;67.75;101390.59;681433;28;22379;-72
2022/02/11 00:24:25;;;;;;;1101.38;999.90;;;;;;;5.62;67.85;101383.53;680167;28;67279;-72
2022/02/11 00:24:47;;;;;;;1091.40;999.90;;;;;;;5.64;68.06;101381.56;682809;28;22197;-72
2022/02/11 00:25:08;;;;;;;1103.70;999.90;;;;;;;5.66;67.92;101386.78;683957;28;44393;-72
2022/02/11 00:25:29;;;;;;;1105.13;999.90;;;;;;;5.67;67.82;101383.97;685239;28;21267;-72
2022/02/11 00:25:56;;;;;;;1100.93;999.90;;;;;;;5.65;67.74;101382.44;684274;28;22183;-72
2022/02/11 00:26:18;;;;;;;1092.93;999.90;;;;;;;5.66;67.98;101384.13;682638;28;60196;-72
2022/02/11 00:26:42;;;;;;;1094.30;999.90;;;;;;;5.63;67.83;101393.28;686961;28;22373;-72
2022/02/11 00:27:51;;;;;;;1096.78;999.90;;;;;;;5.64;67.73;101391.44;685005;28;92183;-72
2022/02/11 00:31:43;;;;;;;1039.00;969.65;;;;;;;5.66;67.83;101390.34;695474;28;136724;-73
2022/02/11 00:32:13;;;;;;;1054.28;984.08;;;;;;;5.64;67.61;101392.28;693832;28;137449;-73
2022/02/11 00:32:42;;;;;;;1047.57;977.85;;;;;;;5.65;67.72;101390.47;693339;28;136205;-73
2022/02/11 00:33:10;;;;;;;1048.47;978.50;;;;;;;5.66;67.85;101384.13;690318;28;137950;-73
2022/02/11 00:33:35;;;;;;;1048.85;978.83;;;;;;;5.66;67.94;101393.03;690763;28;160325;-74
2022/02/11 00:33:58;;;;;;;1052.53;982.33;;;;;;;5.67;68.08;101388.50;691748;28;114897;-73
2022/02/11 00:34:24;;;;;;;1055.45;985.20;;;;;;;5.66;68.06;101390.34;693762;28;69490;-73
2022/02/11 00:34:51;;;;;;;1051.80;981.88;;;;;;;5.69;68.14;101387.41;692711;28;138210;-73
2022/02/11 00:35:23;;;;;;;1049.05;979.35;;;;;;;5.70;68.07;101394.44;693635;28;137624;-73
2022/02/11 00:35:49;;;;;;;1047.65;977.83;;;;;;;5.68;67.92;101391.06;693389;28;137408;-73
2022/02/11 00:36:12;;;;;;;1060.05;989.75;;;;;;;5.72;67.99;101394.31;692401;28;161048;-73
2022/02/11 00:36:41;;;;;;;1057.93;987.72;;;;;;;5.71;67.73;101389.97;694399;28;69410;-73
2022/02/11 00:37:08;;;;;;;1056.13;985.92;;;;;;;5.73;67.75;101386.16;687059;28;138285;-73
2022/02/11 00:37:34;;;;;;;1054.80;984.75;;;;;;;5.72;67.95;101392.50;686255;28;136353;-73
2022/02/11 00:37:56;;;;;;;1056.22;986.15;;;;;;;5.72;67.66;101387.16;687026;28;136511;-73
2022/02/11 00:38:23;;;;;;;1051.80;981.83;;;;;;;5.72;67.59;101386.28;689692;28;45206;-72
2022/02/11 00:39:01;;;;;;;1052.38;982.47;;;;;;;5.73;67.76;101388.81;686427;28;138892;-73
2022/02/11 00:40:02;;;;;;;1051.32;981.30;;;;;;;5.73;67.79;101385.31;691584;28;133358;-73
2022/02/11 00:40:37;;;;;;;1058.00;987.60;;;;;;;5.71;67.28;101387.28;691087;28;137660;-73
2022/02/11 00:41:53;;;;;;;1075.80;999.90;;;;;;;5.67;67.53;101386.66;690251;28;159312;-73
2022/02/11 00:45:53;;;;;;;1034.05;964.60;;;;;;;5.56;68.08;101382.22;692352;28;137875;-73
2022/02/11 00:46:28;;;;;;;1059.07;988.28;;;;;;;5.54;68.08;101378.81;691505;28;138254;-73
2022/02/11 00:47:23;;;;;;;1053.75;983.42;;;;;;;5.53;68.08;101377.13;689589;28;137600;-73
2022/02/11 01:02:08;;;;;;;1008.08;940.17;;;;;;;5.59;68.06;101381.97;679862;28;158670;-73
2022/02/11 01:02:23;;;;;;;943.72;878.63;;;;;;;5.62;68.17;101380.00;686890;28;158707;-73
2022/02/11 01:02:49;;;;;;;1044.28;973.60;;;;;;;5.62;68.15;101386.22;688045;28;137366;-73
2022/02/11 01:03:17;;;;;;;1119.75;999.90;;;;;;;5.63;67.84;101384.38;687926;28;136414;-73
2022/02/11 01:03:53;;;;;;;1119.85;999.90;;;;;;;5.58;67.89;101380.25;687478;28;137565;-73
2022/02/11 01:04:16;;;;;;;1119.07;999.90;;;;;;;5.59;68.13;101379.31;687401;28;137244;-73
2022/02/11 01:04:38;;;;;;;1117.78;999.90;;;;;;;5.59;68.14;101379.31;690077;28;69418;-73
2022/02/11 01:04:59;;;;;;;1108.07;999.90;;;;;;;5.60;68.01;101377.47;691473;28;23371;-73
2022/02/11 01:05:20;;;;;;;1113.05;999.90;;;;;;;5.59;68.09;101384.66;691711;28;22403;-73
2022/02/11 01:05:42;;;;;;;1103.40;999.90;;;;;;;5.57;68.13;101377.72;691064;28;22313;-73
2022/02/11 01:06:03;;;;;;;1105.57;999.90;;;;;;;5.57;68.26;101380.41;690737;28;44053;-73
2022/02/11 01:06:25;;;;;;;1131.75;999.90;;;;;;;5.58;68.12;101382.94;690060;28;46377;-73
2022/02/11 01:06:46;;;;;;;1122.18;999.90;;;;;;;5.59;68.17;101379.31;691625;28;21547;-73
2022/02/11 01:07:10;;;;;;;1046.32;975.92;;;;;;;5.59;68.15;101383.78;688791;28;23788;-73
2022/02/11 01:07:32;;;;;;;895.17;833.47;;;;;;;5.59;67.99;101373.06;685265;28;115068;-73
2022/02/11 01:07:53;;;;;;;902.55;839.85;;;;;;;5.57;68.05;101381.22;685249;28;21222;-73
2022/02/11 01:08:14;;;;;;;926.42;862.85;;;;;;;5.56;68.35;101379.56;685879;28;22222;-73
2022/02/11 01:08:38;;;;;;;954.15;889.22;;;;;;;5.56;68.33;101384.03;686071;28;22389;-73
2022/02/11 01:09:00;;;;;;;977.80;911.90;;;;;;;5.53;68.12;101374.44;684816;28;92285;-73
2022/02/11 01:09:23;;;;;;;944.60;880.60;;;;;;;5.54;68.42;101377.97;688080;28;44117;-73
2022/02/11 01:09:45;;;;;;;925.15;862.13;;;;;;;5.51;68.41;101383.59;687092;28;67413;-73
2022/02/11 01:10:06;;;;;;;938.45;874.78;;;;;;;5.50;68.52;101377.38;690508;28;42058;-72
2022/02/11 01:10:31;;;;;;;948.00;884.00;;;;;;;5.49;68.54;101380.19;691239;28;21532;-73
2022/02/11 01:10:52;;;;;;;938.80;875.20;;;;;;;5.48;68.69;101370.44;687763;28;115866;-73
2022/02/11 01:11:19;;;;;;;930.20;867.22;;;;;;;5.49;68.80;101381.03;690528;28;22376;-73
2022/02/11 01:11:46;;;;;;;935.20;871.67;;;;;;;5.46;68.80;101378.59;687081;28;136457;-73
2022/02/11 01:12:09;;;;;;;935.58;872.17;;;;;;;5.45;68.84;101382.25;685383;28;138022;-73
2022/02/11 01:12:30;;;;;;;943.67;880.03;;;;;;;5.44;68.98;101382.38;689496;28;68386;-73
2022/02/11 01:12:51;;;;;;;954.78;890.67;;;;;;;5.46;68.98;101369.72;690878;28;46299;-73
2022/02/11 01:13:13;;;;;;;957.65;893.53;;;;;;;5.45;69.06;101374.22;691790;28;22369;-73
2022/02/11 01:13:34;;;;;;;964.35;900.05;;;;;;;5.45;69.26;101378.72;691592;28;23361;-73
2022/02/11 01:13:56;;;;;;;1000.30;932.83;;;;;;;5.43;69.17;101376.19;691493;28;23371;-73
2022/02/11 01:14:18;;;;;;;986.65;918.72;;;;;;;5.47;69.17;101379.44;687337;28;45297;-73
2022/02/11 01:14:46;;;;;;;947.92;883.50;;;;;;;5.47;69.06;101371.41;687941;28;45229;-73
2022/02/11 01:15:09;;;;;;;967.22;900.75;;;;;;;5.49;69.24;101378.34;682005;28;138025;-73
2022/02/11 01:15:34;;;;;;;1067.93;995.28;;;;;;;5.49;69.09;101381.03;684006;28;69312;-73
2022/02/11 01:16:02;;;;;;;1128.20;999.90;;;;;;;5.50;69.21;101377.38;681742;28;138386;-73
2022/02/11 01:16:29;;;;;;;1126.20;999.90;;;;;;;5.50;68.96;101381.88;684033;28;137544;-73
2022/02/11 01:16:57;;;;;;;1131.97;999.90;;;;;;;5.49;69.08;101373.00;685587;28;138013;-71
2022/02/11 01:17:28;;;;;;;525.17;492.80;;;;;;;5.50;69.07;101380.06;687939;28;58938;-71
2022/02/11 01:17:53;;;;;;;18.27;17.52;;;;;;;5.51;68.98;101373.72;685057;28;135318;-71
2022/02/11 01:18:16;;;;;;;189.98;180.15;;;;;;;5.50;68.72;101377.38;685784;28;114895;-71
2022/02/11 01:18:38;;;;;;;412.20;388.00;;;;;;;5.49;69.04;101375.69;685369;28;44881;-71
2022/02/11 01:19:07;;;;;;;888.00;827.05;;;;;;;5.49;68.99;101375.69;684314;28;69434;-71
2022/02/11 01:19:35;;;;;;;921.33;857.80;;;;;;;5.46;69.14;101367.91;682296;28;137765;-71
2022/02/11 01:20:01;;;;;;;933.15;869.80;;;;;;;5.47;68.85;101371.41;684757;28;136014;-71
2022/02/11 01:20:39;;;;;;;971.80;906.75;;;;;;;5.46;68.99;101367.91;685124;28;136674;-71
2022/02/11 01:21:04;;;;;;;962.88;897.83;;;;;;;5.48;69.04;101367.75;684905;28;137605;-71
2022/02/11 01:21:33;;;;;;;918.55;855.35;;;;;;;5.47;69.01;101371.41;684784;28;115529;-71
2022/02/11 01:22:04;;;;;;;943.55;877.45;;;;;;;5.48;68.86;101378.47;685125;28;137573;-71
2022/02/11 01:22:42;;;;;;;969.58;903.58;;;;;;;5.47;68.98;101369.59;684802;28;137713;-71
2022/02/11 01:23:09;;;;;;;956.95;892.05;;;;;;;5.47;68.85;101363.38;684920;28;137736;-71
2022/02/11 01:23:46;;;;;;;973.20;907.75;;;;;;;5.49;68.89;101375.69;686351;28;94833;-71
2022/02/11 01:24:24;;;;;;;980.92;915.17;;;;;;;5.48;68.81;101368.59;683145;28;109532;-71
2022/02/11 01:25:05;;;;;;;972.03;906.63;;;;;;;5.48;69.06;101373.97;686460;28;63369;-72
2022/02/11 01:25:43;;;;;;;968.65;903.13;;;;;;;5.48;68.91;101376.63;685011;28;137413;-71
2022/02/11 01:26:18;;;;;;;980.17;914.25;;;;;;;5.48;68.82;101373.13;686730;28;136755;-71
2022/02/11 01:26:48;;;;;;;967.25;902.13;;;;;;;5.49;69.18;101377.50;684543;28;157826;-71
2022/02/11 01:27:24;;;;;;;985.47;919.20;;;;;;;5.47;69.07;101371.41;686719;28;60993;-71
2022/02/11 01:27:57;;;;;;;975.22;908.80;;;;;;;5.48;68.87;101375.81;684750;28;136157;-70
2022/02/11 01:28:33;;;;;;;983.85;917.45;;;;;;;5.46;68.99;101375.94;684889;28;137239;-71
2022/02/11 01:29:23;;;;;;;971.15;906.03;;;;;;;5.47;69.13;101382.13;684996;28;135856;-71
2022/02/11 01:31:14;;;;;;;975.38;910.00;;;;;;;5.38;69.29;101371.22;676540;28;136004;-71
2022/02/11 01:31:50;;;;;;;973.97;907.72;;;;;;;5.40;69.27;101373.75;679817;28;156869;-71
2022/02/11 01:32:27;;;;;;;970.28;904.97;;;;;;;5.40;69.38;101365.72;683998;28;160666;-71
2022/02/11 01:33:11;;;;;;;960.20;895.45;;;;;;;5.37;69.51;101372.19;684914;28;137520;-71
2022/02/11 01:33:46;;;;;;;941.33;877.33;;;;;;;5.37;69.59;101369.50;684717;28;137795;-71
2022/02/11 01:34:30;;;;;;;969.83;904.58;;;;;;;5.37;69.46;101374.84;684173;28;160448;-71
2022/02/11 01:35:01;;;;;;;969.30;904.10;;;;;;;5.37;69.63;101369.50;684708;28;137514;-71
2022/02/11 01:35:31;;;;;;;953.95;889.53;;;;;;;5.39;69.76;101367.56;684872;28;136066;-71
2022/02/11 01:36:02;;;;;;;945.28;880.83;;;;;;;5.38;69.75;101367.69;684366;28;137688;-71
2022/02/11 01:36:48;;;;;;;954.40;889.35;;;;;;;5.38;69.60;101365.00;684710;28;158915;-71
2022/02/11 01:37:25;;;;;;;939.22;874.55;;;;;;;5.38;69.77;101368.53;687419;28;137332;-71
2022/02/11 01:37:55;;;;;;;953.88;888.65;;;;;;;5.40;69.67;101366.56;687695;28;137248;-71
2022/02/11 01:38:26;;;;;;;943.28;879.25;;;;;;;5.43;69.93;101362.78;687961;28;136466;-71
2022/02/11 01:39:11;;;;;;;953.63;889.20;;;;;;;5.40;69.63;101361.22;687923;28;137638;-73
2022/02/11 01:40:07;;;;;;;957.05;892.78;;;;;;;5.44;69.51;101367.19;687644;28;137598;-72
2022/02/11 01:41:07;;;;;;;931.63;868.35;;;;;;;5.43;69.68;101364.63;687606;28;137290;-72
2022/02/11 01:43:57;;;;;;;958.88;893.60;;;;;;;5.43;69.62;101360.09;677507;28;137714;-72
2022/02/11 01:44:43;;;;;;;957.55;892.95;;;;;;;5.42;69.86;101363.75;687405;28;137304;-72
2022/02/11 01:45:23;;;;;;;939.58;875.25;;;;;;;5.41;69.65;101362.06;687765;28;137733;-72
2022/02/11 01:47:27;;;;;;;952.38;887.97;;;;;;;5.38;69.53;101357.81;679102;28;137236;-72
2022/02/11 01:48:21;;;;;;;947.33;883.13;;;;;;;5.37;69.90;101356.09;679088;28;137754;-72
2022/02/11 01:49:01;;;;;;;961.45;896.53;;;;;;;5.37;70.03;101361.47;687591;28;137746;-72
2022/02/11 01:49:43;;;;;;;955.72;891.13;;;;;;;5.36;69.88;101362.47;687578;28;137966;-72
2022/02/11 01:50:35;;;;;;;973.40;907.95;;;;;;;5.37;70.03;101352.59;687244;28;137417;-72
2022/02/11 01:51:13;;;;;;;992.90;926.38;;;;;;;5.36;70.06;101357.09;689939;28;136260;-72
2022/02/11 01:51:45;;;;;;;1027.00;958.50;;;;;;;5.36;69.91;101353.56;686032;28;156324;-72
2022/02/11 01:52:17;;;;;;;1029.80;961.00;;;;;;;5.35;70.14;101349.19;687086;28;137454;-72
2022/02/11 01:52:52;;;;;;;1048.72;979.15;;;;;;;5.36;70.16;101361.59;687127;28;137715;-72
2022/02/11 01:53:22;;;;;;;1045.88;976.25;;;;;;;5.36;70.18;101358.91;682177;28;137829;-72
2022/02/11 01:53:49;;;;;;;1049.70;979.92;;;;;;;5.34;70.25;101353.69;682038;28;137594;-72
2022/02/11 01:54:17;;;;;;;1046.20;976.55;;;;;;;5.36;70.27;101354.44;684852;28;136465;-72
2022/02/11 01:54:51;;;;;;;1047.78;978.08;;;;;;;5.36;70.15;101359.78;684772;28;137877;-72
2022/02/11 01:55:27;;;;;;;1042.35;972.92;;;;;;;5.39;70.42;101355.97;685127;28;137361;-72
2022/02/11 01:56:50;;;;;;;1020.47;952.10;;;;;;;5.40;70.22;101350.50;673400;29;157151;-72
2022/02/11 01:57:26;;;;;;;1016.60;948.40;;;;;;;5.39;70.18;101348.81;674286;29;160518;-72
2022/02/11 01:59:05;;;;;;;1040.95;971.60;;;;;;;5.41;70.24;101346.84;677545;29;137299;-72
2022/02/11 02:00:32;;;;;;;1037.60;968.50;;;;;;;5.40;69.93;101346.97;674780;29;137820;-72
2022/02/11 02:02:06;;;;;;;1031.30;962.42;;;;;;;5.40;70.02;101338.94;678283;28;137402;-72
2022/02/11 02:02:59;;;;;;;1033.25;964.35;;;;;;;5.41;70.27;101346.00;683069;28;137730;-72
2022/02/11 02:03:44;;;;;;;1036.55;967.45;;;;;;;5.42;70.30;101345.00;682935;28;137367;-72
2022/02/11 02:04:57;;;;;;;1036.65;967.55;;;;;;;5.45;70.22;101347.44;683091;28;136298;-72
2022/02/11 02:05:47;;;;;;;1036.70;967.60;;;;;;;5.47;70.14;101344.63;683174;28;136045;-72
2022/02/11 02:06:35;;;;;;;1047.68;977.97;;;;;;;5.49;70.13;101338.16;683058;28;137407;-72
2022/02/11 02:09:27;;;;;;;1021.20;952.88;;;;;;;5.50;70.05;101330.97;677175;29;137709;-72
2022/02/11 02:12:24;;;;;;;823.42;762.10;;;;;;;5.51;70.08;101333.50;698984;27;20747;-72
2022/02/11 02:13:07;;;;;;;997.00;929.65;;;;;;;5.51;70.05;101330.00;694364;28;137962;-72
2022/02/11 02:14:53;;;;;;;999.85;932.42;;;;;;;5.53;70.07;101336.06;687471;28;137511;-73
2022/02/11 02:19:35;;;;;;;1020.28;952.08;;;;;;;5.60;69.78;101334.59;678181;28;137133;-73
2022/02/11 02:22:28;;;;;;;1014.58;946.78;;;;;;;5.63;69.89;101328.09;666160;29;155960;-73
2022/02/11 02:23:01;;;;;;;1027.50;958.78;;;;;;;5.62;69.71;101331.78;670911;29;137387;-73
2022/02/11 02:23:34;;;;;;;1016.30;948.25;;;;;;;5.62;69.64;101326.41;671902;29;137194;-73
2022/02/11 02:24:15;;;;;;;1015.97;948.03;;;;;;;5.60;69.65;101331.91;677305;28;161327;-73
2022/02/11 02:24:51;;;;;;;1018.25;950.15;;;;;;;5.59;69.80;101328.38;677948;28;135973;-73
2022/02/11 02:25:19;;;;;;;1004.58;937.08;;;;;;;5.59;69.81;101331.06;689500;28;135993;-73
2022/02/11 02:25:46;;;;;;;1011.92;944.00;;;;;;;5.59;69.87;101335.56;689032;28;136031;-73
2022/02/11 02:26:18;;;;;;;1028.40;959.72;;;;;;;5.56;69.61;101335.81;688800;28;137824;-73
2022/02/11 02:27:00;;;;;;;1006.03;938.25;;;;;;;5.56;69.75;101331.31;686293;28;156013;-73
2022/02/11 02:27:46;;;;;;;1014.53;946.53;;;;;;;5.55;70.00;101329.59;687280;28;137420;-73
2022/02/11 02:28:46;;;;;;;1037.63;968.42;;;;;;;5.57;70.09;101332.16;687272;28;137515;-73
2022/02/11 02:29:57;;;;;;;1025.57;957.05;;;;;;;5.54;69.89;101330.56;688656;28;137802;-73
2022/02/11 02:33:22;;;;;;;1007.40;939.75;;;;;;;5.48;70.13;101317.69;688803;28;137425;-73
2022/02/11 02:36:24;;;;;;;1016.75;948.65;;;;;;;5.54;70.31;101322.53;680228;28;137515;-73
2022/02/11 02:37:16;;;;;;;1032.10;963.13;;;;;;;5.52;70.07;101321.81;687405;28;157461;-73
2022/02/11 02:38:02;;;;;;;1007.97;940.33;;;;;;;5.52;70.28;101312.94;688659;28;137596;-73
2022/02/11 02:50:50;;;;;;;1010.03;942.10;;;;;;;5.49;70.17;101318.56;688871;28;137498;-73
2022/02/11 02:56:44;;;;;;;208.75;198.38;;;;;;;5.49;70.46;101307.84;688364;28;137678;-73
2022/02/11 02:57:10;;;;;;;400.65;380.30;;;;;;;5.50;70.48;101306.84;688646;28;138203;-73
2022/02/11 02:57:40;;;;;;;481.13;456.25;;;;;;;5.50;70.35;101310.41;689100;28;136366;-73
2022/02/11 02:58:12;;;;;;;500.02;474.08;;;;;;;5.49;70.52;101303.34;688851;28;137160;-73
2022/02/11 02:58:38;;;;;;;572.47;541.72;;;;;;;5.50;70.17;101306.84;689073;28;137676;-73
2022/02/11 02:59:03;;;;;;;984.60;922.00;;;;;;;5.52;70.54;101310.28;689188;28;138585;-73
2022/02/11 02:59:37;;;;;;;982.90;916.85;;;;;;;5.51;70.36;101309.41;689764;28;114787;-73
2022/02/11 03:01:35;;;;;;;993.75;926.30;;;;;;;5.50;70.31;101304.16;689658;28;137909;-73
2022/02/11 03:02:02;;;;;;;1000.55;932.72;;;;;;;5.51;70.37;101306.72;690577;28;158932;-73
2022/02/11 03:16:33;;;;;;;1032.40;963.13;;;;;;;5.48;70.60;101304.31;686782;28;136120;-73
2022/02/11 03:17:56;;;;;;;1002.92;934.90;;;;;;;5.48;70.54;101301.63;689027;28;137428;-73
2022/02/11 03:35:23;;;;;;;999.05;931.85;;;;;;;5.48;70.35;101292.75;686651;28;137432;-73
2022/02/11 03:48:35;;;;;;;1016.50;948.20;;;;;;;5.49;70.33;101292.63;686828;28;139077;-73
2022/02/11 03:49:02;;;;;;;709.35;667.58;;;;;;;5.55;70.36;101305.50;686293;28;137062;-73
2022/02/11 03:49:29;;;;;;;507.77;481.40;;;;;;;5.55;70.40;101310.84;687387;28;134614;-73
2022/02/11 03:51:30;;;;;;;1022.30;953.70;;;;;;;5.54;70.62;101310.97;682676;28;137686;-73
2022/02/11 03:53:14;;;;;;;1033.00;963.90;;;;;;;5.58;70.43;101310.59;686502;28;136202;-73
2022/02/11 03:54:44;;;;;;;1025.43;956.72;;;;;;;5.59;70.27;101308.75;687148;28;135883;-73
2022/02/11 03:55:41;;;;;;;918.33;862.05;;;;;;;5.59;70.25;101314.13;687131;28;137774;-73
2022/02/11 03:57:35;;;;;;;984.35;918.13;;;;;;;5.64;70.16;101313.72;686723;28;138238;-73
2022/02/11 03:59:27;;;;;;;977.25;911.17;;;;;;;5.63;70.25;101314.69;681616;28;137534;-73
2022/02/11 04:08:38;;;;;;;968.15;902.45;;;;;;;5.55;70.54;101305.50;686774;28;136084;-73
2022/02/11 04:22:16;;;;;;;985.65;918.97;;;;;;;5.62;70.83;101313.84;682912;28;156482;-73
2022/02/11 04:26:17;;;;;;;962.88;906.85;;;;;;;5.59;70.83;101314.13;678214;28;136116;-73
2022/02/11 04:55:05;;;;;;;645.60;611.60;;;;;;;5.61;71.28;101309.47;694759;28;135995;-71
2022/02/11 04:55:27;;;;;;;706.13;667.80;;;;;;;5.62;71.15;101318.38;694491;28;137981;-71
2022/02/11 04:55:50;;;;;;;758.70;715.97;;;;;;;5.61;71.32;101309.47;697559;28;46147;-71
2022/02/11 04:56:11;;;;;;;761.60;718.38;;;;;;;5.60;71.40;101315.81;697163;28;58964;-71
2022/02/11 04:56:36;;;;;;;753.90;711.65;;;;;;;5.62;71.24;101319.22;695420;28;22386;-71
2022/02/11 04:56:58;;;;;;;770.65;727.45;;;;;;;5.62;71.44;101318.38;692643;28;113588;-72
2022/02/11 04:59:38;;;;;;;683.42;646.53;;;;;;;5.64;71.40;101316.41;692226;28;136040;-73
2022/02/11 04:59:59;;;;;;;739.08;697.75;;;;;;;5.67;71.31;101318.81;691649;28;137538;-73
2022/02/11 05:00:20;;;;;;;795.47;749.88;;;;;;;5.68;71.15;101318.69;696852;28;941;-73
2022/02/11 05:00:41;;;;;;;781.78;737.05;;;;;;;5.70;70.96;101318.56;696118;28;21543;-73
2022/02/11 05:01:04;;;;;;;783.47;738.50;;;;;;;5.68;71.01;101307.97;695754;28;22414;-73
2022/02/11 05:01:25;;;;;;;799.85;753.85;;;;;;;5.71;71.09;101312.22;693852;28;69406;-73
2022/02/11 05:01:46;;;;;;;783.90;738.90;;;;;;;5.69;70.87;101304.31;696250;28;22386;-73
2022/02/11 05:02:07;;;;;;;821.17;773.92;;;;;;;5.73;70.64;101316.47;695963;28;21459;-73
2022/02/11 05:02:30;;;;;;;854.65;805.25;;;;;;;5.70;70.87;101311.34;696158;28;22120;-73
2022/02/11 05:02:56;;;;;;;785.65;740.50;;;;;;;5.70;70.92;101313.19;694535;28;69513;-73
2022/02/11 05:03:17;;;;;;;774.13;730.22;;;;;;;5.68;70.92;101307.13;692020;28;137907;-73
2022/02/11 05:03:39;;;;;;;794.03;748.40;;;;;;;5.67;71.03;101316.97;695999;28;22199;-73
2022/02/11 05:04:00;;;;;;;773.25;729.10;;;;;;;5.68;71.04;101318.69;695596;28;21238;-73
2022/02/11 05:04:22;;;;;;;776.72;732.38;;;;;;;5.65;71.07;101310.91;696186;28;22475;-73
2022/02/11 05:04:43;;;;;;;765.58;722.10;;;;;;;5.64;70.95;101317.25;695235;28;44262;-73
2022/02/11 05:05:06;;;;;;;897.42;842.80;;;;;;;5.64;71.13;101322.59;695298;28;45448;-73
2022/02/11 05:05:29;;;;;;;1059.18;989.15;;;;;;;5.66;71.10;101317.13;694328;28;69198;-73
2022/02/11 05:05:50;;;;;;;1062.43;992.13;;;;;;;5.65;71.03;101316.28;694561;28;44405;-73
2022/02/11 05:06:12;;;;;;;1064.00;993.30;;;;;;;5.64;71.22;101317.25;695038;28;44371;-73
2022/02/11 05:06:33;;;;;;;1050.22;980.83;;;;;;;5.60;71.08;101313.97;694003;28;46370;-73
2022/02/11 05:06:55;;;;;;;1053.97;983.88;;;;;;;5.60;71.16;101311.31;695887;28;22204;-73
2022/02/11 05:07:16;;;;;;;1056.47;986.78;;;;;;;5.62;71.18;101310.34;694828;28;45080;-73
2022/02/11 05:07:38;;;;;;;1056.35;986.20;;;;;;;5.63;71.30;101320.06;695890;28;20812;-73
2022/02/11 05:08:01;;;;;;;1055.75;985.25;;;;;;;5.62;71.39;101308.50;694871;28;46385;-73
2022/02/11 05:08:25;;;;;;;1057.18;986.58;;;;;;;5.62;71.22;101313.84;695870;28;13727;-73
2022/02/11 05:08:47;;;;;;;1058.40;987.70;;;;;;;5.61;71.43;101317.50;694581;28;69419;-73
2022/02/11 05:09:08;;;;;;;1060.70;990.00;;;;;;;5.62;71.22;101313.00;695175;28;46792;-73